createdAt,value
2023-04-04T00:01:13.089Z,52.71
2023-04-04T00:03:42.147Z,53.28
2023-04-04T00:06:11.023Z,52.36
2023-04-04T00:08:39.785Z,52.52
2023-04-04T00:11:08.525Z,53.17
2023-04-04T00:13:37.650Z,52.94
2023-04-04T00:16:08.396Z,53.50
2023-04-04T00:18:37.201Z,53.18
2023-04-04T00:21:06.224Z,53.83
2023-04-04T00:23:35.107Z,53.90
2023-04-04T00:26:03.780Z,53.97
2023-04-04T00:28:32.615Z,53.52
2023-04-04T00:31:02.624Z,53.99
2023-04-04T00:33:32.926Z,53.87
2023-04-04T00:36:01.860Z,54.50
2023-04-04T00:38:30.717Z,53.74
2023-04-04T00:40:59.634Z,53.87
2023-04-04T00:43:29.022Z,53.71
2023-04-04T00:45:58.211Z,54.27
2023-04-04T00:48:27.639Z,54.85
2023-04-04T00:50:57.856Z,54.55
2023-04-04T00:53:27.447Z,54.66
2023-04-04T00:55:56.145Z,54.99
2023-04-04T00:58:27.860Z,53.98
2023-04-04T01:00:56.914Z,54.96
2023-04-04T01:03:25.956Z,54.96
2023-04-04T01:05:55.952Z,54.78
2023-04-04T01:08:27.854Z,54.25
2023-04-04T01:10:56.912Z,55.17
2023-04-04T01:13:25.838Z,54.56
2023-04-04T01:15:54.676Z,54.91
2023-04-04T01:18:25.804Z,54.90
2023-04-04T01:20:59.459Z,54.46
2023-04-04T01:23:45.134Z,54.89
2023-04-04T01:26:17.025Z,55.00
2023-04-04T01:28:46.712Z,54.95
2023-04-04T01:31:20.938Z,54.42
2023-04-04T01:33:56.971Z,54.61
2023-04-04T01:36:33.503Z,54.10
2023-04-04T01:39:11.453Z,54.63
2023-04-04T01:41:43.911Z,54.17
2023-04-04T01:44:13.045Z,54.47
2023-04-04T01:46:41.710Z,54.36
2023-04-04T01:49:12.604Z,53.75
2023-04-04T01:51:42.196Z,54.47
2023-04-04T01:54:11.282Z,53.66
2023-04-04T01:56:41.432Z,53.43
2023-04-04T01:59:10.571Z,53.77
2023-04-04T02:01:39.856Z,54.29
2023-04-04T02:04:11.402Z,53.89
2023-04-04T02:06:41.658Z,53.99
2023-04-04T02:09:11.467Z,54.03
2023-04-04T02:11:41.654Z,53.11
2023-04-04T02:14:10.488Z,52.85
2023-04-04T02:16:39.384Z,53.20
2023-04-04T02:19:08.253Z,52.99
2023-04-04T02:21:39.238Z,52.52
2023-04-04T02:24:08.987Z,51.99
2023-04-04T02:26:37.574Z,52.55
2023-04-04T02:29:09.638Z,52.66
2023-04-04T02:31:39.088Z,53.33
2023-04-04T02:34:10.669Z,52.65
2023-04-04T02:36:39.644Z,53.08
2023-04-04T02:39:08.428Z,52.40
2023-04-04T02:41:41.952Z,52.70
2023-04-04T02:44:12.878Z,54.05
2023-04-04T02:46:42.256Z,54.25
2023-04-04T02:49:15.854Z,54.41
2023-04-04T02:51:49.220Z,53.92
2023-04-04T02:54:18.730Z,53.98
2023-04-04T02:56:49.308Z,54.24
2023-04-04T02:59:20.006Z,55.05
2023-04-04T03:01:48.936Z,54.40
2023-04-04T03:04:19.621Z,54.38
2023-04-04T03:06:49.261Z,54.98
2023-04-04T03:09:17.964Z,54.54
2023-04-04T03:11:46.759Z,53.76
2023-04-04T03:14:15.712Z,54.53
2023-04-04T03:16:46.371Z,54.73
2023-04-04T03:19:15.137Z,54.09
2023-04-04T03:21:43.948Z,53.45
2023-04-04T03:24:13.487Z,53.55
2023-04-04T03:26:42.516Z,53.57
2023-04-04T03:29:14.531Z,53.27
2023-04-04T03:31:43.397Z,53.80
2023-04-04T03:34:13.708Z,53.72
2023-04-04T03:36:43.026Z,54.07
2023-04-04T03:39:11.677Z,54.23
2023-04-04T03:41:41.169Z,54.22
2023-04-04T03:44:10.019Z,53.95
2023-04-04T03:46:38.966Z,54.99
2023-04-04T03:49:07.776Z,54.37
2023-04-04T03:51:38.033Z,55.11
2023-04-04T03:54:07.042Z,54.56
2023-04-04T03:56:35.778Z,55.00
2023-04-04T03:59:08.090Z,55.04
2023-04-04T04:01:36.786Z,54.69
2023-04-04T04:04:05.474Z,55.48
2023-04-04T04:06:34.538Z,54.58
2023-04-04T04:09:04.760Z,54.56
2023-04-04T04:11:33.555Z,54.63
2023-04-04T04:14:02.334Z,55.07
2023-04-04T04:16:33.163Z,54.57
2023-04-04T04:19:02.564Z,55.39
2023-04-04T04:21:44.655Z,54.64
2023-04-04T04:24:14.934Z,55.10
2023-04-04T04:26:44.299Z,54.85
2023-04-04T04:29:17.564Z,54.20
2023-04-04T04:31:46.560Z,53.78
2023-04-04T04:34:15.670Z,53.89
2023-04-04T04:36:44.779Z,54.24
2023-04-04T04:39:26.310Z,54.20
2023-04-04T04:42:07.201Z,53.79
2023-04-04T04:44:39.274Z,53.56
2023-04-04T04:47:08.056Z,53.06
2023-04-04T04:49:37.541Z,53.55
2023-04-04T04:52:10.055Z,53.07
2023-04-04T04:54:45.510Z,52.25
2023-04-04T04:57:15.563Z,52.09
2023-04-04T04:59:46.204Z,52.36
2023-04-04T05:02:17.507Z,52.31
2023-04-04T05:04:48.881Z,52.20
2023-04-04T05:07:19.334Z,52.50
2023-04-04T05:09:51.537Z,51.69
2023-04-04T05:12:24.179Z,52.28
2023-04-04T05:14:54.863Z,51.98
2023-04-04T05:17:24.121Z,52.32
2023-04-04T05:19:56.548Z,51.42
2023-04-04T05:22:25.572Z,52.38
2023-04-04T05:24:56.265Z,52.17
2023-04-04T05:27:27.519Z,51.24
2023-04-04T05:30:00.888Z,51.59
2023-04-04T05:32:39.718Z,51.52
2023-04-04T05:35:14.672Z,51.08
2023-04-04T05:37:44.016Z,51.31
2023-04-04T05:40:19.466Z,51.25
2023-04-04T05:42:57.845Z,50.97
2023-04-04T05:45:33.056Z,50.09
2023-04-04T05:48:02.880Z,49.94
2023-04-04T05:50:35.220Z,49.38
2023-04-04T05:53:07.000Z,49.42
2023-04-04T05:55:37.160Z,48.98
2023-04-04T05:58:06.016Z,48.56
2023-04-04T06:00:46.931Z,48.20
2023-04-04T06:03:17.483Z,47.47
2023-04-04T06:05:53.703Z,46.95
2023-04-04T06:08:22.996Z,46.07
2023-04-04T06:10:55.622Z,46.15
2023-04-04T06:13:24.944Z,45.66
2023-04-04T06:15:59.201Z,45.37
2023-04-04T06:18:27.968Z,44.52
2023-04-04T06:20:57.096Z,44.46
2023-04-04T06:23:26.260Z,44.12
2023-04-04T06:25:56.573Z,44.66
2023-04-04T06:28:25.890Z,45.05
2023-04-04T06:30:55.091Z,44.95
2023-04-04T06:33:30.819Z,44.27
2023-04-04T06:35:59.594Z,43.97
2023-04-04T06:38:29.624Z,43.83
2023-04-04T06:41:03.212Z,43.00
2023-04-04T06:43:32.602Z,43.27
2023-04-04T06:46:02.299Z,42.60
2023-04-04T06:48:31.062Z,42.63
2023-04-04T06:50:59.880Z,42.47
2023-04-04T06:53:29.510Z,42.39
2023-04-04T06:55:58.313Z,41.96
2023-04-04T06:58:28.422Z,41.55
2023-04-04T07:01:00.154Z,41.82
2023-04-04T07:03:29.258Z,41.10
2023-04-04T07:05:57.836Z,40.55
2023-04-04T07:08:28.749Z,40.61
2023-04-04T07:10:57.857Z,41.30
2023-04-04T07:13:28.479Z,40.76
2023-04-04T07:15:57.278Z,40.90
2023-04-04T07:18:25.911Z,40.47
2023-04-04T07:20:54.715Z,40.36
2023-04-04T07:23:23.251Z,40.24
2023-04-04T07:25:55.275Z,39.51
2023-04-04T07:28:24.082Z,39.58
2023-04-04T07:30:54.135Z,39.76
2023-04-04T07:33:22.902Z,39.85
2023-04-04T07:35:52.581Z,39.65
2023-04-04T07:38:20.949Z,39.39
2023-04-04T07:40:50.828Z,39.65
2023-04-04T07:43:19.561Z,40.01
2023-04-04T07:45:48.309Z,39.67
2023-04-04T07:48:19.666Z,39.39
2023-04-04T07:50:49.387Z,39.57
2023-04-04T07:53:17.948Z,39.13
2023-04-04T07:55:46.779Z,39.04
2023-04-04T07:58:15.670Z,38.82
2023-04-04T08:00:44.384Z,38.62
2023-04-04T08:03:13.222Z,38.50
2023-04-04T08:05:44.684Z,38.33
2023-04-04T08:08:13.904Z,37.96
2023-04-04T08:10:42.891Z,38.32
2023-04-04T08:13:11.854Z,38.37
2023-04-04T08:15:40.853Z,37.75
2023-04-04T08:18:09.720Z,37.20
2023-04-04T08:20:38.651Z,37.10
2023-04-04T08:23:10.069Z,36.78
2023-04-04T08:25:39.623Z,36.66
2023-04-04T08:28:08.447Z,36.73
2023-04-04T08:30:37.310Z,36.75
2023-04-04T08:33:06.960Z,36.29
2023-04-04T08:35:35.715Z,35.83
2023-04-04T08:38:06.415Z,35.74
2023-04-04T08:40:38.756Z,35.74
2023-04-04T08:43:09.146Z,35.67
2023-04-04T08:45:40.460Z,36.77
2023-04-04T08:48:12.014Z,35.62
2023-04-04T08:50:42.056Z,35.46
2023-04-04T08:53:13.282Z,35.27
2023-04-04T08:55:44.574Z,35.11
2023-04-04T08:58:13.556Z,34.75
2023-04-04T09:00:43.677Z,35.31
2023-04-04T09:03:21.892Z,34.68
2023-04-04T09:05:51.328Z,34.36
2023-04-04T09:08:20.436Z,34.17
2023-04-04T09:10:51.639Z,34.67
2023-04-04T09:13:20.896Z,34.83
2023-04-04T09:15:51.515Z,33.90
2023-04-04T09:18:20.279Z,33.76
2023-04-04T09:20:50.072Z,34.56
2023-04-04T09:23:21.225Z,34.13
2023-04-04T09:26:03.250Z,33.92
2023-04-04T09:28:34.528Z,33.22
2023-04-04T09:31:06.056Z,33.11
2023-04-04T09:33:36.582Z,33.71
2023-04-04T09:36:10.552Z,33.58
2023-04-04T09:38:43.558Z,33.97
2023-04-04T09:41:17.026Z,34.74
2023-04-04T09:43:46.977Z,34.95
2023-04-04T09:46:17.537Z,36.23
2023-04-04T09:48:52.148Z,36.20
2023-04-04T09:51:20.896Z,35.97
2023-04-04T09:53:49.987Z,36.23
2023-04-04T09:56:21.225Z,34.76
2023-04-04T10:01:22.894Z,35.28
2023-04-04T10:03:54.027Z,35.98
2023-04-04T10:06:23.814Z,35.52
2023-04-04T10:08:52.477Z,35.63
2023-04-04T10:11:33.832Z,36.28
2023-04-04T10:14:04.256Z,36.47
2023-04-04T10:16:38.311Z,35.14
2023-04-04T10:19:08.973Z,35.81
2023-04-04T10:21:38.245Z,34.70
2023-04-04T10:24:10.354Z,35.71
2023-04-04T10:26:41.251Z,35.92
2023-04-04T10:29:10.234Z,35.46
2023-04-04T10:31:43.997Z,35.38
2023-04-04T10:34:21.892Z,35.28
2023-04-04T10:36:53.019Z,36.23
2023-04-04T10:40:04.818Z,35.89
2023-04-04T10:42:41.894Z,36.42
2023-04-04T10:45:20.390Z,35.92
2023-04-04T10:47:52.229Z,35.52
2023-04-04T10:50:22.071Z,34.75
2023-04-04T10:52:51.985Z,35.43
2023-04-04T10:55:21.215Z,34.99
2023-04-04T10:57:54.290Z,34.64
2023-04-04T11:00:24.792Z,34.22
2023-04-04T11:02:58.108Z,35.13
2023-04-04T11:05:28.465Z,34.23
2023-04-04T11:10:33.964Z,33.58
2023-04-04T11:13:13.803Z,34.52
2023-04-04T11:15:49.219Z,35.01
2023-04-04T11:18:30.547Z,34.87
2023-04-04T11:21:03.807Z,34.42
2023-04-04T11:24:11.131Z,34.25
2023-04-04T11:26:45.653Z,34.08
2023-04-04T11:29:25.225Z,34.01
2023-04-04T11:31:54.432Z,34.21
2023-04-04T11:34:34.650Z,34.42
2023-04-04T11:37:17.795Z,34.67
2023-04-04T11:39:57.424Z,34.26
2023-04-04T11:42:35.318Z,33.38
2023-04-04T11:45:07.302Z,33.94
2023-04-04T11:47:36.164Z,34.21
2023-04-04T11:50:10.169Z,34.47
2023-04-04T11:52:39.649Z,34.17
2023-04-04T11:55:17.641Z,33.77
2023-04-04T11:57:48.369Z,33.43
2023-04-04T12:00:32.496Z,33.64
2023-04-04T12:03:01.405Z,34.33
2023-04-04T12:05:32.015Z,33.33
2023-04-04T12:08:02.661Z,33.11
2023-04-04T12:10:33.660Z,33.57
2023-04-04T12:13:02.879Z,33.40
2023-04-04T12:15:33.514Z,34.03
2023-04-04T12:18:03.683Z,33.96
2023-04-04T12:20:33.133Z,33.99
2023-04-04T12:23:02.325Z,33.24
2023-04-04T12:25:34.304Z,33.35
2023-04-04T12:28:05.640Z,33.72
2023-04-04T12:30:36.312Z,33.43
2023-04-04T12:33:05.806Z,33.81
2023-04-04T12:35:34.650Z,33.94
2023-04-04T12:38:06.476Z,33.76
2023-04-04T12:40:37.534Z,33.15
2023-04-04T12:43:08.351Z,33.08
2023-04-04T12:45:42.642Z,33.33
2023-04-04T12:48:14.397Z,32.95
2023-04-04T12:50:55.179Z,33.36
2023-04-04T12:56:01.610Z,33.61
2023-04-04T12:58:30.809Z,32.61
2023-04-04T13:01:02.771Z,34.02
2023-04-04T13:03:32.378Z,33.46
2023-04-04T13:06:01.242Z,33.59
2023-04-04T13:08:30.108Z,33.71
2023-04-04T13:11:02.338Z,33.71
2023-04-04T13:13:37.435Z,33.87
2023-04-04T13:16:08.925Z,33.13
2023-04-04T13:18:42.386Z,33.77
2023-04-04T13:21:13.755Z,33.92
2023-04-04T13:23:43.101Z,34.50
2023-04-04T13:26:12.732Z,33.57
2023-04-04T13:28:41.534Z,34.11
2023-04-04T13:31:11.948Z,33.64
2023-04-04T13:33:40.813Z,34.03
2023-04-04T13:36:11.104Z,34.08
2023-04-04T13:38:39.903Z,34.14
2023-04-04T13:41:08.642Z,34.82
2023-04-04T13:43:37.524Z,34.81
2023-04-04T13:46:06.411Z,34.60
2023-04-04T13:48:36.553Z,34.85
2023-04-04T13:51:05.492Z,34.20
2023-04-04T13:53:34.445Z,34.94
2023-04-04T13:56:17.864Z,34.46
2023-04-04T13:58:47.691Z,33.46
2023-04-04T14:01:16.796Z,34.48
2023-04-04T14:03:49.365Z,35.04
2023-04-04T14:06:18.061Z,34.85
2023-04-04T14:08:48.370Z,33.96
2023-04-04T14:11:17.393Z,34.82
2023-04-04T14:13:46.365Z,34.63
2023-04-04T14:16:16.398Z,34.43
2023-04-04T14:18:49.493Z,34.96
2023-04-04T14:21:18.343Z,34.88
2023-04-04T14:23:47.552Z,35.52
2023-04-04T14:26:16.390Z,34.95
2023-04-04T14:28:45.144Z,35.34
2023-04-04T14:31:13.989Z,35.64
2023-04-04T14:33:42.787Z,34.93
2023-04-04T14:36:13.108Z,36.07
2023-04-04T14:38:41.904Z,36.01
2023-04-04T14:41:11.051Z,36.01
2023-04-04T14:43:39.874Z,36.26
2023-04-04T14:46:08.654Z,35.92
2023-04-04T14:48:37.443Z,36.58
2023-04-04T14:51:06.526Z,37.08
2023-04-04T14:53:36.936Z,37.09
2023-04-04T14:56:06.016Z,36.64
2023-04-04T14:58:34.733Z,36.56
2023-04-04T15:01:03.910Z,36.75
2023-04-04T15:03:32.653Z,37.12
2023-04-04T15:06:02.285Z,37.52
2023-04-04T15:08:31.047Z,37.65
2023-04-04T15:11:02.447Z,37.40
2023-04-04T15:13:31.351Z,36.72
2023-04-04T15:16:01.824Z,36.82
2023-04-04T15:18:31.026Z,36.95
2023-04-04T15:20:59.940Z,37.02
2023-04-04T15:23:28.722Z,38.04
2023-04-04T15:25:57.502Z,37.78
2023-04-04T15:28:28.910Z,37.78
2023-04-04T15:30:58.239Z,38.28
2023-04-04T15:33:27.055Z,38.80
2023-04-04T15:35:55.851Z,38.87
2023-04-04T15:38:24.622Z,39.11
2023-04-04T15:40:53.468Z,38.49
2023-04-04T15:43:22.675Z,38.78
2023-04-04T15:45:52.872Z,38.50
2023-04-04T15:48:22.136Z,38.52
2023-04-04T15:50:50.955Z,38.94
2023-04-04T15:53:19.739Z,39.33
2023-04-04T15:55:48.687Z,39.90
2023-04-04T15:58:17.538Z,39.79
2023-04-04T16:00:47.648Z,39.99
2023-04-04T16:03:18.027Z,40.26
2023-04-04T16:05:46.940Z,39.95
2023-04-04T16:08:16.039Z,40.03
2023-04-04T16:10:44.902Z,40.32
2023-04-04T16:13:15.225Z,40.55
2023-04-04T16:15:44.102Z,41.24
2023-04-04T16:18:12.940Z,41.12
2023-04-04T16:20:43.247Z,41.63
2023-04-04T16:23:11.874Z,41.92
2023-04-04T16:25:40.893Z,41.93
2023-04-04T16:28:09.672Z,41.74
2023-04-04T16:30:38.662Z,42.24
2023-04-04T16:33:08.092Z,42.34
2023-04-04T16:35:37.680Z,42.87
2023-04-04T16:38:09.045Z,42.69
2023-04-04T16:40:38.383Z,42.55
2023-04-04T16:43:07.381Z,42.57
2023-04-04T16:45:36.226Z,42.90
2023-04-04T16:48:05.206Z,43.33
2023-04-04T16:50:34.020Z,43.54
2023-04-04T16:53:04.341Z,43.91
2023-04-04T16:55:34.548Z,44.19
2023-04-04T16:58:03.735Z,44.38
2023-04-04T17:00:33.432Z,44.59
2023-04-04T17:03:02.363Z,44.45
2023-04-04T17:05:31.123Z,44.28
2023-04-04T17:07:59.937Z,44.80
2023-04-04T17:10:28.824Z,44.69
2023-04-04T17:12:58.990Z,44.87
2023-04-04T17:15:28.764Z,45.09
2023-04-04T17:17:57.510Z,44.61
2023-04-04T17:20:27.801Z,45.37
2023-04-04T17:22:58.482Z,45.46
2023-04-04T17:25:29.444Z,45.64
2023-04-04T17:27:59.754Z,45.32
2023-04-04T17:30:28.555Z,45.55
2023-04-04T17:32:57.709Z,45.34
2023-04-04T17:35:27.262Z,45.93
2023-04-04T17:37:56.841Z,45.84
2023-04-04T17:40:25.600Z,45.81
2023-04-04T17:42:54.515Z,45.66
2023-04-04T17:45:25.077Z,45.83
2023-04-04T17:47:53.881Z,46.23
2023-04-04T17:50:22.782Z,46.39
2023-04-04T17:52:51.746Z,45.79
2023-04-04T17:55:21.468Z,46.41
2023-04-04T17:57:49.983Z,46.32
2023-04-04T18:00:21.243Z,46.82
2023-04-04T18:02:51.647Z,46.64
2023-04-04T18:05:20.796Z,46.94
2023-04-04T18:07:49.599Z,47.03
2023-04-04T18:10:18.583Z,46.54
2023-04-04T18:12:47.491Z,47.06
2023-04-04T18:15:16.867Z,47.37
2023-04-04T18:17:45.601Z,46.87
2023-04-04T18:20:27.832Z,47.05
2023-04-04T18:23:04.784Z,46.94
2023-04-04T18:25:34.763Z,47.27
2023-04-04T18:28:03.672Z,48.06
2023-04-04T18:30:35.587Z,47.83
2023-04-04T18:33:05.590Z,47.00
2023-04-04T18:35:36.633Z,47.31
2023-04-04T18:38:06.333Z,46.98
2023-04-04T18:40:34.872Z,47.31
2023-04-04T18:43:04.412Z,47.79
2023-04-04T18:45:39.841Z,48.09
2023-04-04T18:48:09.881Z,47.71
2023-04-04T18:50:40.311Z,47.38
2023-04-04T18:53:09.866Z,47.78
2023-04-04T18:55:39.018Z,48.71
2023-04-04T18:58:11.052Z,48.63
2023-04-04T19:00:40.334Z,48.75
2023-04-04T19:03:11.677Z,48.45
2023-04-04T19:05:48.122Z,48.10
2023-04-04T19:08:17.739Z,48.80
2023-04-04T19:10:48.058Z,48.47
2023-04-04T19:13:17.257Z,48.78
2023-04-04T19:15:46.013Z,48.54
2023-04-04T19:18:15.017Z,48.80
2023-04-04T19:20:45.264Z,48.72
2023-04-04T19:23:14.563Z,48.98
2023-04-04T19:25:43.553Z,49.74
2023-04-04T19:28:12.467Z,49.05
2023-04-04T19:30:45.254Z,49.99
2023-04-04T19:33:15.424Z,49.99
2023-04-04T19:35:55.180Z,50.07
2023-04-04T19:38:26.473Z,49.40
2023-04-04T19:40:58.685Z,49.95
2023-04-04T19:43:28.756Z,49.34
2023-04-04T19:45:59.842Z,49.63
2023-04-04T19:48:42.263Z,50.38
2023-04-04T19:51:29.104Z,50.15
2023-04-04T19:53:59.423Z,50.27
2023-04-04T19:56:30.043Z,50.38
2023-04-04T19:59:01.157Z,50.05
2023-04-04T20:01:32.184Z,50.21
2023-04-04T20:04:09.703Z,50.22
2023-04-04T20:06:40.180Z,50.17
2023-04-04T20:09:14.221Z,50.27
2023-04-04T20:11:43.679Z,50.60
2023-04-04T20:14:12.261Z,49.76
2023-04-04T20:16:41.249Z,50.30
2023-04-04T20:19:11.705Z,50.34
2023-04-04T20:21:42.127Z,49.88
2023-04-04T20:24:11.574Z,50.45
2023-04-04T20:26:59.877Z,50.87
2023-04-04T20:29:31.293Z,50.55
2023-04-04T20:32:02.096Z,50.65
2023-04-04T20:34:40.031Z,51.13
2023-04-04T20:37:16.401Z,50.80
2023-04-04T20:39:49.289Z,51.16
2023-04-04T20:42:38.342Z,50.77
2023-04-04T20:45:36.080Z,51.63
2023-04-04T20:48:08.684Z,51.55
2023-04-04T20:50:44.639Z,51.59
2023-04-04T20:53:20.685Z,51.09
2023-04-04T20:55:50.780Z,51.62
2023-04-04T20:58:29.782Z,51.58
2023-04-04T21:01:00.890Z,51.36
2023-04-04T21:03:38.480Z,51.04
2023-04-04T21:06:16.172Z,51.46
2023-04-04T21:08:48.836Z,51.75
2023-04-04T21:11:25.325Z,51.68
2023-04-04T21:13:56.795Z,51.36
2023-04-04T21:16:27.955Z,51.08
2023-04-04T21:19:00.159Z,51.89
2023-04-04T21:21:29.754Z,51.93
2023-04-04T21:24:00.816Z,51.92
2023-04-04T21:26:33.208Z,52.34
2023-04-04T21:29:05.249Z,51.85
2023-04-04T21:31:38.969Z,51.83
2023-04-04T21:34:15.012Z,51.96
2023-04-04T21:36:45.171Z,51.75
2023-04-04T21:39:16.117Z,51.77
2023-04-04T21:41:46.437Z,51.77
2023-04-04T21:44:15.183Z,52.34
2023-04-04T21:46:44.626Z,51.90
2023-04-04T21:49:13.713Z,51.44
2023-04-04T21:51:42.587Z,51.94
2023-04-04T21:54:11.688Z,52.20
2023-04-04T21:56:41.882Z,51.98
2023-04-04T21:59:11.517Z,51.93
2023-04-04T22:01:40.928Z,52.40
2023-04-04T22:04:09.728Z,52.31
2023-04-04T22:06:38.499Z,52.17
2023-04-04T22:09:07.473Z,52.43
2023-04-04T22:11:39.029Z,51.92
2023-04-04T22:14:09.339Z,52.02
2023-04-04T22:16:43.519Z,52.31
2023-04-04T22:19:15.801Z,51.97
2023-04-04T22:21:48.411Z,52.37
2023-04-04T22:24:19.033Z,52.36
2023-04-04T22:26:50.664Z,52.44
2023-04-04T22:29:20.976Z,52.58
2023-04-04T22:31:49.846Z,52.33
2023-04-04T22:34:18.629Z,52.16
2023-04-04T22:36:47.455Z,52.50
2023-04-04T22:39:20.701Z,52.36
2023-04-04T22:41:49.672Z,52.39
2023-04-04T22:44:18.373Z,52.19
2023-04-04T22:46:48.699Z,51.91
2023-04-04T22:49:18.212Z,51.99
2023-04-04T22:51:46.866Z,52.22
2023-04-04T22:54:16.896Z,52.16
2023-04-04T22:56:46.163Z,52.39
2023-04-04T22:59:14.940Z,52.61
2023-04-04T23:01:43.910Z,52.14
2023-04-04T23:04:14.333Z,52.46
2023-04-04T23:06:45.092Z,52.27
2023-04-04T23:09:14.700Z,52.49
2023-04-04T23:11:43.582Z,52.56
2023-04-04T23:14:15.392Z,52.57
2023-04-04T23:16:44.507Z,52.49
2023-04-04T23:19:14.795Z,52.14
2023-04-04T23:21:43.956Z,52.59
2023-04-04T23:24:12.763Z,52.73
2023-04-04T23:26:41.554Z,52.80
2023-04-04T23:29:10.240Z,52.68
2023-04-04T23:31:39.222Z,52.85
2023-04-04T23:34:08.076Z,53.06
2023-04-04T23:36:38.394Z,53.41
2023-04-04T23:39:07.492Z,52.92
2023-04-04T23:41:36.255Z,53.12
2023-04-04T23:44:05.133Z,52.84
2023-04-04T23:46:35.535Z,52.95
2023-04-04T23:49:04.470Z,52.82
2023-04-04T23:51:38.489Z,52.71
2023-04-04T23:54:09.965Z,52.66
2023-04-04T23:56:39.067Z,52.78
2023-04-04T23:59:08.498Z,52.64
